• Join FlightAware (Why Join?)
  • Login
  • US Flag 
12:38AM EDT


 

Airport Tracker/Info


-or-


 

Live Flight TrackerFlight Track Log ✈ N30898 ✈ 11-Aug-2013 ✈ KPDK - KMQY

Flight Track Log - Related Links

Times and Time Zones

All times are in EDT time to prevent confusion due to time zone crossing. See the N30898 flight status page for this flight to view local times or setup timezone preferences in your user account.

Time Position Orientation Groundspeed Altitude Reporting Facility
EDT Latitude Longitude Course Direction KTS MPH feet Rate Location/Type
06:45PM 33.8333 -84.3000 90° East 148 170 1,900  Level Atlanta TRACON
06:46PM 33.8333 -84.2667 90° East 165 190 2,900 960 Climbing Atlanta TRACON
06:47PM 33.8833 -84.2333 29° Northeast 181 208 3,900 900 Climbing Atlanta TRACON
06:48PM 33.9000 -84.2667 301° West 178 205 4,800 840 Climbing Atlanta TRACON
06:49PM 33.9167 -84.3167 292° West 167 192 5,600 840 Climbing Atlanta TRACON
06:50PM 33.9333 -84.3667 292° West 160 184 6,700 660 Climbing Atlanta TRACON
06:51PM 33.9500 -84.4333 287° West 184 212 7,000 180 Climbing Atlanta TRACON
06:52PM 33.9542 -84.4694 278° West 200 230 7,000 120 Level Atlanta Center
06:53PM 33.9686 -84.5347 285° West 192 221 7,200 660 Climbing Atlanta Center
06:54PM 33.9789 -84.5900 283° West 180 207 8,400 900 Climbing Atlanta Center
06:55PM 33.9911 -84.6450 285° West 173 199 9,000 300 Climbing Atlanta Center
06:56PM 34.0053 -84.7078 285° West 184 212 9,000  Level Atlanta Center
06:57PM 34.0197 -84.7706 286° West 189 217 9,000 240 Level Atlanta Center
06:58PM 34.0169 -84.8383 267° West 200 230 9,500 480 Climbing Atlanta Center
06:59PM 34.0125 -84.9008 265° West 194 223 10,000 240 Climbing Atlanta Center
07:00PM 34.0100 -84.9736 268° West 205 236 10,000  Level Atlanta Center
07:01PM 34.0094 -85.0336 269° West 211 243 10,000  Level Atlanta Center
07:02PM 34.0089 -85.0989 269° West 205 236 10,000  Level Atlanta Center
07:03PM 34.0083 -85.1639 269° West 199 229 10,000  Level Atlanta Center
07:04PM 34.0119 -85.2267 274° West 193 222 10,000  Level Atlanta Center
07:05PM 34.0197 -85.2894 279° West 198 228 10,000  Level Atlanta Center
07:06PM 34.0314 -85.3522 283° West 198 228 10,000 420 Level Atlanta Center
07:07PM 34.0433 -85.4125 283° West 198 228 10,900 1,020 Climbing Atlanta Center
07:08PM 34.0636 -85.4631 296° West 173 199 12,100 1,200 Climbing Atlanta Center
07:09PM 34.0986 -85.4964 322° Northwest 154 177 13,300 1,140 Climbing Atlanta Center
07:10PM 34.1381 -85.5244 330° Northwest 155 178 14,400 1,020 Climbing Atlanta Center
07:11PM 34.1753 -85.5528 328° Northwest 160 184 15,400 780 Climbing Atlanta Center
07:12PM 34.2167 -85.5886 324° Northwest 171 197 16,000 300 Climbing Atlanta Center
07:13PM 34.2683 -85.6225 332° Northwest 189 217 16,000  Level Atlanta Center
07:14PM 34.3181 -85.6533 333° Northwest 201 231 16,000  Level Atlanta Center
07:15PM 34.3697 -85.6872 332° Northwest 207 238 16,000  Level Atlanta Center
07:16PM 34.4175 -85.7133 336° Northwest 207 238 16,000  Level Atlanta Center
07:17PM 34.4692 -85.7419 335° Northwest 207 238 16,000  Level Atlanta Center
07:19PM 34.5881 -85.8061 336° Northwest 212 244 16,100  Climbing Memphis Center
07:20PM 34.6411 -85.8336 337° Northwest 212 244 16,000  Descending Memphis Center
07:21PM 34.6964 -85.8611 338° Northwest 212 244 16,100  Climbing Memphis Center
07:22PM 34.7475 -85.8911 334° Northwest 212 244 16,100 -60 Level Memphis Center
07:23PM 34.8069 -85.9233 336° Northwest 212 244 16,000 -120 Descending Memphis Center
07:24PM 34.8539 -85.9489 336° Northwest 212 244 15,900  Descending Memphis Center
07:25PM 34.9050 -85.9789 334° Northwest 207 238 16,000  Climbing Memphis Center
07:26PM 34.9522 -86.0172 326° Northwest 202 232 16,000  Level Memphis Center
07:27PM 35.0056 -86.0472 335° Northwest 202 232 16,000  Level Memphis Center
07:28PM 35.0586 -86.0775 335° Northwest 207 238 16,000 -240 Level Memphis Center
07:29PM 35.1158 -86.1050 339° North 207 238 15,600 -540 Descending Memphis Center
07:30PM 35.1711 -86.1303 340° North 212 244 15,000 -600 Descending Memphis Center
07:31PM 35.2261 -86.1553 340° North 212 244 14,400 -600 Descending Memphis Center
07:32PM 35.2789 -86.1781 341° North 212 244 13,800 -720 Descending Memphis Center
07:33PM 35.3319 -86.2061 337° Northwest 205 236 13,000 -720 Descending Memphis Center
07:34PM 35.3914 -86.2336 339° North 205 236 12,400 -720 Descending Memphis Center
07:35PM 35.4464 -86.2564 341° North 205 236 11,600 -900 Descending Memphis Center
07:36PM 35.4994 -86.2844 337° Northwest 205 236 10,600 -1,020 Descending Memphis Center
07:37PM 35.5503 -86.3075 340° North 199 229 9,600 -1,020 Descending Memphis Center
07:38PM 35.6031 -86.3303 341° North 199 229 8,600 -1,020 Descending Memphis Center
07:39PM 35.6519 -86.3536 339° North 189 217 7,600 -1,020 Descending Memphis Center
07:40PM 35.7006 -86.3767 339° North 189 217 6,600 -1,080 Descending Memphis Center
07:41PM 35.7492 -86.4000 339° North 189 217 5,500 -1,080 Descending Memphis Center
07:42PM 35.7978 -86.4206 341° North 189 217 4,500 -1,020 Descending Memphis Center
07:43PM 35.8467 -86.4467 337° Northwest 189 217 3,500 -780 Descending Memphis Center
07:44PM 35.8847 -86.4628 341° North 182 209 3,000 -540 Descending Memphis Center
07:45PM 35.9269 -86.4761 346° North 167 192 2,500 -840 Descending Memphis Center
07:46PM 35.9686 -86.4792 357° North 156 180 1,400 -720 Descending Memphis Center
07:47PM 36.0108 -86.4925 346° North 146 168 1,100 -300 Descending Memphis Center
07:53PM 36.0090 -86.5201 351° North  Level Estimated
08:00PM 36.0090 -86.5201 180° South  Level Estimated
08:01PM 36.0090 -86.5201 180° South  Level Estimated
08:02PM 36.0090 -86.5201 180° South  Level Estimated
08:03PM 36.0090 -86.5201 180° South  Level Estimated
08:04PM 36.0090 -86.5201 180° South  Level Estimated
08:05PM 36.0090 -86.5201 180° South  Level Estimated
08:06PM 36.0090 -86.5201 180° South  Level Estimated
08:07PM 36.0090 -86.5201 180° South  Level Estimated
08:08PM 36.0090 -86.5201 180° South  Level Estimated
08:09PM 36.0090 -86.5201 180° South  Level Estimated